createdAt,value
2022-11-25T00:01:30.627Z,98645.72
2022-11-25T00:03:59.813Z,98643.25
2022-11-25T00:06:29.888Z,98641.50
2022-11-25T00:08:59.990Z,98637.41
2022-11-25T00:11:28.762Z,98639.00
2022-11-25T00:13:57.737Z,98637.72
2022-11-25T00:16:27.635Z,98630.47
2022-11-25T00:23:15.158Z,98629.84
2022-11-25T00:25:42.968Z,98633.69
2022-11-25T00:28:10.828Z,98634.56
2022-11-25T00:30:38.757Z,98628.31
2022-11-25T00:33:07.905Z,98626.53
2022-11-25T00:35:35.986Z,98634.00
2022-11-25T00:38:03.787Z,98636.00
2022-11-25T00:40:33.063Z,98639.09
2022-11-25T00:47:15.276Z,98640.09
2022-11-25T00:49:46.707Z,98628.91
2022-11-25T00:52:16.582Z,98630.69
2022-11-25T00:54:45.753Z,98642.56
2022-11-25T00:57:13.869Z,98630.06
2022-11-25T00:59:41.976Z,98634.00
2022-11-25T01:02:11.050Z,98632.53
2022-11-25T01:04:39.170Z,98638.03
2022-11-25T01:07:08.607Z,98642.72
2022-11-25T01:09:37.599Z,98645.38
2022-11-25T01:12:08.826Z,98645.72
2022-11-25T01:14:37.001Z,98653.22
2022-11-25T01:17:05.164Z,98658.31
2022-11-25T01:19:33.956Z,98645.91
2022-11-25T01:22:01.770Z,98638.75
2022-11-25T01:24:30.964Z,98641.09
2022-11-25T01:26:58.739Z,98639.91
2022-11-25T01:29:26.553Z,98634.59
2022-11-25T01:31:57.171Z,98630.16
2022-11-25T01:34:27.197Z,98632.22
2022-11-25T01:36:58.148Z,98635.84
2022-11-25T01:39:32.038Z,98642.78
2022-11-25T01:42:02.222Z,98635.84
2022-11-25T01:44:31.376Z,98641.09
2022-11-25T01:47:06.476Z,98648.00
2022-11-25T01:49:39.050Z,98646.94
2022-11-25T01:52:11.957Z,98639.81
2022-11-25T01:54:53.175Z,98629.66
2022-11-25T01:57:27.653Z,98628.34
2022-11-25T01:59:59.626Z,98630.56
2022-11-25T02:02:28.929Z,98633.97
2022-11-25T02:04:58.391Z,98636.03
2022-11-25T02:07:32.416Z,98648.06
2022-11-25T02:10:01.324Z,98640.72
2022-11-25T02:12:31.593Z,98644.56
2022-11-25T02:15:00.605Z,98649.84
2022-11-25T02:17:28.407Z,98645.66
2022-11-25T02:20:02.820Z,98647.81
2022-11-25T02:22:44.312Z,98645.63
2022-11-25T02:25:16.819Z,98646.47
2022-11-25T02:27:47.384Z,98645.78
2022-11-25T02:30:17.923Z,98641.72
2022-11-25T02:32:46.982Z,98642.28
2022-11-25T02:35:36.572Z,98642.88
2022-11-25T02:38:10.121Z,98642.72
2022-11-25T02:40:44.873Z,98640.91
2022-11-25T02:43:13.221Z,98634.38
2022-11-25T02:50:08.831Z,98642.16
2022-11-25T02:52:37.077Z,98636.44
2022-11-25T02:55:05.153Z,98636.53
2022-11-25T02:57:37.799Z,98636.16
2022-11-25T03:00:07.416Z,98640.78
2022-11-25T03:02:35.474Z,98631.84
2022-11-25T03:05:03.849Z,98630.09
2022-11-25T03:07:31.748Z,98613.94
2022-11-25T03:14:26.614Z,98627.84
2022-11-25T03:16:54.768Z,98623.38
2022-11-25T03:19:22.618Z,98627.41
2022-11-25T03:21:53.099Z,98611.00
2022-11-25T03:24:20.884Z,98617.50
2022-11-25T03:26:51.356Z,98613.63
2022-11-25T03:29:21.596Z,98606.34
2022-11-25T03:31:51.028Z,98609.38
2022-11-25T03:34:22.123Z,98611.19
2022-11-25T03:36:50.702Z,98605.94
2022-11-25T03:43:33.023Z,98622.31
2022-11-25T03:46:01.104Z,98617.81
2022-11-25T03:48:30.556Z,98615.41
2022-11-25T03:50:58.479Z,98607.81
2022-11-25T03:53:28.236Z,98610.38
2022-11-25T04:00:14.747Z,98616.63
2022-11-25T04:02:56.966Z,98619.53
2022-11-25T04:05:26.291Z,98622.91
2022-11-25T04:07:58.103Z,98616.16
2022-11-25T04:10:26.930Z,98618.97
2022-11-25T04:12:54.978Z,98612.50
2022-11-25T04:15:27.857Z,98610.97
2022-11-25T04:17:58.615Z,98610.59
2022-11-25T04:20:27.823Z,98605.22
2022-11-25T04:23:03.861Z,98614.13
2022-11-25T04:25:32.653Z,98620.28
2022-11-25T04:28:00.470Z,98608.06
2022-11-25T04:30:34.334Z,98609.03
2022-11-25T04:37:30.519Z,98612.75
2022-11-25T04:39:59.796Z,98611.84
2022-11-25T04:42:34.704Z,98602.59
2022-11-25T04:45:24.598Z,98603.91
2022-11-25T04:47:56.593Z,98598.31
2022-11-25T04:54:57.400Z,98597.03
2022-11-25T04:57:27.797Z,98600.81
2022-11-25T04:59:54.849Z,98600.28
2022-11-25T05:02:25.444Z,98609.69
2022-11-25T05:05:10.170Z,98610.06
2022-11-25T05:07:40.949Z,98616.53
2022-11-25T05:10:10.548Z,98617.59
2022-11-25T05:17:08.961Z,98628.16
2022-11-25T05:19:37.043Z,98620.47
2022-11-25T05:22:05.759Z,98609.97
2022-11-25T05:24:34.122Z,98607.97
2022-11-25T05:27:04.917Z,98608.13
2022-11-25T05:29:33.257Z,98611.69
2022-11-25T05:32:01.156Z,98613.53
2022-11-25T05:34:29.259Z,98616.38
2022-11-25T05:36:58.812Z,98615.22
2022-11-25T05:39:27.432Z,98616.59
2022-11-25T05:46:30.611Z,98631.38
2022-11-25T05:48:58.616Z,98625.00
2022-11-25T05:51:28.253Z,98633.94
2022-11-25T05:53:57.239Z,98647.69
2022-11-25T05:56:29.580Z,98639.63
2022-11-25T05:59:15.916Z,98651.56
2022-11-25T06:02:01.138Z,98654.19
2022-11-25T06:04:28.993Z,98656.94
2022-11-25T06:06:58.024Z,98657.53
2022-11-25T06:09:26.037Z,98663.81
2022-11-25T06:11:54.110Z,98658.88
2022-11-25T06:14:21.981Z,98663.09
2022-11-25T06:16:51.796Z,98666.50
2022-11-25T06:19:27.952Z,98668.00
2022-11-25T06:21:55.712Z,98663.38
2022-11-25T06:24:24.564Z,98670.78
2022-11-25T06:26:57.885Z,98662.75
2022-11-25T06:29:25.896Z,98677.31
2022-11-25T06:31:53.772Z,98675.03
2022-11-25T06:34:37.529Z,98674.88
2022-11-25T06:37:07.963Z,98681.09
2022-11-25T06:39:35.868Z,98685.44
2022-11-25T06:42:03.774Z,98676.50
2022-11-25T06:44:31.551Z,98683.16
2022-11-25T06:46:59.492Z,98679.59
2022-11-25T06:49:28.640Z,98691.72
2022-11-25T06:51:57.887Z,98684.00
2022-11-25T06:54:25.728Z,98683.41
2022-11-25T06:56:53.854Z,98684.25
2022-11-25T06:59:22.472Z,98691.91
2022-11-25T07:01:50.546Z,98700.28
2022-11-25T07:04:18.394Z,98710.50
2022-11-25T07:06:46.302Z,98716.50
2022-11-25T07:09:15.456Z,98720.22
2022-11-25T07:11:43.356Z,98708.53
2022-11-25T07:14:13.352Z,98705.69
2022-11-25T07:16:43.990Z,98713.31
2022-11-25T07:19:13.957Z,98707.78
2022-11-25T07:21:43.370Z,98707.56
2022-11-25T07:24:17.100Z,98699.31
2022-11-25T07:26:45.817Z,98699.16
2022-11-25T07:32:10.048Z,98700.38
2022-11-25T07:34:38.627Z,98715.19
2022-11-25T07:37:06.543Z,98717.66
2022-11-25T07:39:35.990Z,98712.88
2022-11-25T07:42:04.192Z,98713.75
2022-11-25T07:44:32.027Z,98722.28
2022-11-25T07:47:18.435Z,98719.47
2022-11-25T07:49:46.274Z,98727.47
2022-11-25T07:52:14.067Z,98723.94
2022-11-25T07:54:43.389Z,98727.00
2022-11-25T07:57:11.337Z,98731.09
2022-11-25T07:59:41.244Z,98738.47
2022-11-25T08:02:11.270Z,98737.19
2022-11-25T08:04:39.371Z,98738.78
2022-11-25T08:07:07.415Z,98740.56
2022-11-25T08:09:35.517Z,98739.63
2022-11-25T08:12:07.630Z,98741.94
2022-11-25T08:14:36.045Z,98749.50
2022-11-25T08:17:06.068Z,98748.81
2022-11-25T08:19:34.136Z,98747.63
2022-11-25T08:22:02.010Z,98746.59
2022-11-25T08:24:29.813Z,98752.06
2022-11-25T08:27:01.216Z,98733.69
2022-11-25T08:29:30.385Z,98733.34
2022-11-25T08:31:58.478Z,98719.31
2022-11-25T08:34:26.622Z,98719.03
2022-11-25T08:37:01.176Z,98728.16
2022-11-25T08:42:18.058Z,98741.38
2022-11-25T08:44:47.242Z,98736.28
2022-11-25T08:47:14.984Z,98732.84
2022-11-25T08:49:43.017Z,98738.34
2022-11-25T08:52:11.726Z,98734.31
2022-11-25T08:54:43.860Z,98739.03
2022-11-25T08:57:11.764Z,98738.16
2022-11-25T08:59:40.491Z,98740.72
2022-11-25T09:02:10.597Z,98744.81
2022-11-25T09:04:38.510Z,98754.94
2022-11-25T09:07:06.403Z,98754.59
2022-11-25T09:09:35.125Z,98760.88
2022-11-25T09:12:03.219Z,98754.81
2022-11-25T09:14:31.014Z,98750.63
2022-11-25T09:17:02.025Z,98754.81
2022-11-25T09:19:31.218Z,98764.84
2022-11-25T09:21:59.028Z,98759.06
2022-11-25T09:24:26.922Z,98762.63
2022-11-25T09:26:54.815Z,98765.41
2022-11-25T09:29:22.770Z,98768.75
2022-11-25T09:31:54.638Z,98771.16
2022-11-25T09:34:26.295Z,98771.34
2022-11-25T09:36:55.720Z,98777.75
2022-11-25T09:39:29.690Z,98784.91
2022-11-25T09:42:33.182Z,98779.75
2022-11-25T09:45:31.229Z,98779.63
2022-11-25T09:48:14.220Z,98772.69
2022-11-25T09:50:53.482Z,98770.41
2022-11-25T09:53:38.448Z,98769.66
2022-11-25T09:56:15.319Z,98773.78
2022-11-25T09:58:49.436Z,98780.13
2022-11-25T10:01:21.731Z,98769.97
2022-11-25T10:03:54.870Z,98760.19
2022-11-25T10:06:25.892Z,98766.69
2022-11-25T10:08:59.370Z,98767.34
2022-11-25T10:11:43.260Z,98773.03
2022-11-25T10:14:18.118Z,98781.28
2022-11-25T10:16:51.746Z,98776.66
2022-11-25T10:19:27.364Z,98786.00
2022-11-25T10:21:55.203Z,98784.63
2022-11-25T10:24:25.455Z,98787.59
2022-11-25T10:26:58.471Z,98783.66
2022-11-25T10:29:29.122Z,98783.44
2022-11-25T10:32:06.137Z,98781.72
2022-11-25T10:34:40.418Z,98780.13
2022-11-25T10:37:19.107Z,98786.84
2022-11-25T10:39:48.254Z,98787.56
2022-11-25T10:42:21.019Z,98787.56
2022-11-25T10:44:48.833Z,98791.38
2022-11-25T10:47:36.271Z,98777.56
2022-11-25T10:50:16.483Z,98779.13
2022-11-25T10:52:51.166Z,98777.06
2022-11-25T10:55:25.953Z,98782.81
2022-11-25T10:57:53.973Z,98777.75
2022-11-25T11:00:28.436Z,98785.41
2022-11-25T11:02:57.607Z,98790.13
2022-11-25T11:05:28.848Z,98798.16
2022-11-25T11:08:19.841Z,98795.53
2022-11-25T11:11:11.291Z,98795.66
2022-11-25T11:13:39.346Z,98806.16
2022-11-25T11:16:24.705Z,98810.94
2022-11-25T11:18:53.568Z,98826.25
2022-11-25T11:21:30.412Z,98823.41
2022-11-25T11:23:59.740Z,98822.75
2022-11-25T11:26:31.597Z,98834.88
2022-11-25T11:29:03.149Z,98836.84
2022-11-25T11:31:35.513Z,98840.50
2022-11-25T11:34:20.145Z,98845.50
2022-11-25T11:37:01.552Z,98852.31
2022-11-25T11:39:59.960Z,98845.19
2022-11-25T11:47:43.900Z,98855.28
2022-11-25T11:50:26.196Z,98865.72
2022-11-25T11:53:03.361Z,98860.66
2022-11-25T11:55:44.222Z,98859.84
2022-11-25T11:58:25.788Z,98865.03
2022-11-25T12:01:04.041Z,98863.72
2022-11-25T12:03:39.934Z,98866.31
2022-11-25T12:06:11.920Z,98858.34
2022-11-25T12:08:49.011Z,98864.78
2022-11-25T12:11:22.130Z,98855.97
2022-11-25T12:14:00.715Z,98856.19
2022-11-25T12:16:33.107Z,98856.41
2022-11-25T12:19:07.030Z,98856.63
2022-11-25T12:21:49.910Z,98856.63
2022-11-25T12:24:22.816Z,98869.19
2022-11-25T12:26:55.087Z,98870.13
2022-11-25T12:29:32.383Z,98876.81
2022-11-25T12:32:17.349Z,98875.81
2022-11-25T12:34:52.538Z,98877.41
2022-11-25T12:37:33.116Z,98882.31
2022-11-25T12:40:07.170Z,98889.31
2022-11-25T12:42:40.198Z,98882.03
2022-11-25T12:45:17.684Z,98883.13
2022-11-25T12:47:46.228Z,98894.66
2022-11-25T12:50:18.058Z,98890.78
2022-11-25T12:52:56.557Z,98903.44
2022-11-25T12:55:25.557Z,98909.44
2022-11-25T12:58:23.651Z,98911.38
2022-11-25T13:01:17.392Z,98907.63
2022-11-25T13:04:24.460Z,98918.44
2022-11-25T13:07:26.887Z,98919.72
2022-11-25T13:10:38.325Z,98931.63
2022-11-25T13:13:21.801Z,98942.19
2022-11-25T13:15:53.646Z,98938.88
2022-11-25T13:18:24.876Z,98936.09
2022-11-25T13:20:54.166Z,98938.66
2022-11-25T13:23:27.903Z,98940.16
2022-11-25T13:26:47.014Z,98947.84
2022-11-25T13:30:03.547Z,98947.25
2022-11-25T13:32:34.526Z,98961.56
2022-11-25T13:35:36.550Z,98959.91
2022-11-25T13:38:47.122Z,98956.97
2022-11-25T13:41:46.938Z,98960.13
2022-11-25T13:44:30.641Z,98962.53
2022-11-25T13:47:01.699Z,98968.16
2022-11-25T13:49:35.216Z,98969.38
2022-11-25T13:52:07.441Z,98973.94
2022-11-25T13:54:40.129Z,98973.56
2022-11-25T13:57:26.331Z,98977.44
2022-11-25T14:00:21.523Z,98980.34
2022-11-25T14:02:49.825Z,98984.44
2022-11-25T14:05:42.945Z,98984.72
2022-11-25T14:08:21.785Z,98981.59
2022-11-25T14:11:00.830Z,98990.06
2022-11-25T14:13:50.820Z,98990.91
2022-11-25T14:16:39.066Z,98997.69
2022-11-25T14:22:37.841Z,99003.78
2022-11-25T14:25:16.186Z,99003.78
2022-11-25T14:27:52.064Z,99003.91
2022-11-25T14:30:22.049Z,99007.69
2022-11-25T14:32:57.642Z,99009.69
2022-11-25T14:35:31.584Z,99015.63
2022-11-25T14:38:02.370Z,99026.84
2022-11-25T14:40:37.594Z,99020.69
2022-11-25T14:43:15.176Z,99024.31
2022-11-25T14:45:44.613Z,99021.13
2022-11-25T14:48:16.663Z,99025.16
2022-11-25T14:50:57.405Z,99027.03
2022-11-25T14:53:26.521Z,99024.59
2022-11-25T14:55:55.044Z,99033.84
2022-11-25T14:58:23.180Z,99027.47
2022-11-25T15:00:54.736Z,99033.75
2022-11-25T15:03:22.465Z,99034.69
2022-11-25T15:05:57.134Z,99032.91
2022-11-25T15:08:26.316Z,99042.63
2022-11-25T15:10:57.080Z,99051.78
2022-11-25T15:13:36.151Z,99057.22
2022-11-25T15:16:10.096Z,99055.41
2022-11-25T15:18:39.338Z,99054.63
2022-11-25T15:21:07.550Z,99061.94
2022-11-25T15:23:38.813Z,99065.38
2022-11-25T15:26:19.659Z,99066.88
2022-11-25T15:28:48.275Z,99067.25
2022-11-25T15:31:21.435Z,99069.34
2022-11-25T15:34:06.512Z,99081.03
2022-11-25T15:36:34.739Z,99086.84
2022-11-25T15:39:16.141Z,99087.81
2022-11-25T15:41:46.230Z,99090.97
2022-11-25T15:44:23.228Z,99091.78
2022-11-25T15:46:57.548Z,99092.56
2022-11-25T15:49:25.615Z,99107.63
2022-11-25T15:51:57.489Z,99099.69
2022-11-25T15:54:29.570Z,99102.47
2022-11-25T15:57:03.265Z,99108.78
2022-11-25T15:59:46.740Z,99102.94
2022-11-25T16:02:37.794Z,99104.81
2022-11-25T16:05:35.784Z,99100.50
2022-11-25T16:08:30.559Z,99104.25
2022-11-25T16:11:01.430Z,99108.88
2022-11-25T16:13:33.343Z,99103.78
2022-11-25T16:16:09.944Z,99110.09
2022-11-25T16:18:42.475Z,99111.53
2022-11-25T16:21:13.109Z,99122.00
2022-11-25T16:23:45.172Z,99125.38
2022-11-25T16:26:22.878Z,99125.00
2022-11-25T16:28:56.411Z,99134.25
2022-11-25T16:31:24.902Z,99134.81
2022-11-25T16:34:10.831Z,99140.28
2022-11-25T16:36:38.869Z,99128.03
2022-11-25T16:39:06.679Z,99139.13
2022-11-25T16:41:35.526Z,99137.09
2022-11-25T16:44:08.717Z,99153.00
2022-11-25T16:46:40.014Z,99152.13
2022-11-25T16:49:14.536Z,99152.72
2022-11-25T16:51:43.131Z,99150.34
2022-11-25T16:54:12.348Z,99155.94
2022-11-25T16:56:42.897Z,99154.13
2022-11-25T16:59:16.047Z,99170.78
2022-11-25T17:01:44.083Z,99176.47
2022-11-25T17:04:15.024Z,99182.69
2022-11-25T17:06:50.615Z,99170.38
2022-11-25T17:09:32.371Z,99171.16
2022-11-25T17:12:00.394Z,99182.16
2022-11-25T17:14:31.991Z,99183.00
2022-11-25T17:17:04.401Z,99191.25
2022-11-25T17:19:33.722Z,99195.81
2022-11-25T17:22:01.662Z,99195.03
2022-11-25T17:24:29.538Z,99208.84
2022-11-25T17:27:01.319Z,99200.75
2022-11-25T17:29:34.150Z,99211.81
2022-11-25T17:32:03.113Z,99214.72
2022-11-25T17:34:36.320Z,99219.66
2022-11-25T17:37:12.288Z,99221.28
2022-11-25T17:39:40.267Z,99217.44
2022-11-25T17:42:08.406Z,99225.91
2022-11-25T17:44:37.202Z,99233.75
2022-11-25T17:47:12.533Z,99238.81
2022-11-25T17:49:40.475Z,99237.03
2022-11-25T17:52:11.748Z,99232.91
2022-11-25T17:54:40.039Z,99242.34
2022-11-25T17:57:12.421Z,99244.13
2022-11-25T17:59:40.781Z,99256.09
2022-11-25T18:02:18.390Z,99251.75
2022-11-25T18:04:46.366Z,99255.34
2022-11-25T18:07:15.773Z,99259.75
2022-11-25T18:09:44.418Z,99272.34
2022-11-25T18:12:17.782Z,99275.81
2022-11-25T18:14:46.291Z,99278.00
2022-11-25T18:17:17.254Z,99288.38
2022-11-25T18:19:54.559Z,99281.88
2022-11-25T18:22:24.877Z,99290.72
2022-11-25T18:24:53.597Z,99290.72
2022-11-25T18:27:24.446Z,99289.41
2022-11-25T18:29:53.245Z,99290.72
2022-11-25T18:32:21.209Z,99288.84
2022-11-25T18:34:49.149Z,99294.97
2022-11-25T18:37:17.077Z,99293.88
2022-11-25T18:39:48.528Z,99303.31
2022-11-25T18:42:24.651Z,99309.72
2022-11-25T18:44:56.216Z,99312.69
2022-11-25T18:47:24.665Z,99312.09
2022-11-25T18:49:56.193Z,99316.63
2022-11-25T18:52:24.394Z,99315.16
2022-11-25T18:54:53.806Z,99323.41
2022-11-25T18:57:21.950Z,99321.38
2022-11-25T19:00:00.200Z,99328.84
2022-11-25T19:02:38.233Z,99336.00
2022-11-25T19:05:17.222Z,99330.22
2022-11-25T19:07:45.480Z,99339.75
2022-11-25T19:10:15.389Z,99339.75
2022-11-25T19:12:45.946Z,99337.53
2022-11-25T19:15:16.740Z,99340.91
2022-11-25T19:17:47.839Z,99351.97
2022-11-25T19:20:16.864Z,99353.84
2022-11-25T19:22:47.332Z,99367.69
2022-11-25T19:25:17.743Z,99369.56
2022-11-25T19:27:48.096Z,99373.84
2022-11-25T19:30:17.583Z,99378.84
2022-11-25T19:32:47.169Z,99382.34
2022-11-25T19:35:18.592Z,99393.47
2022-11-25T19:37:46.430Z,99388.53
2022-11-25T19:40:17.603Z,99390.41
2022-11-25T19:42:48.357Z,99402.22
2022-11-25T19:45:18.396Z,99405.72
2022-11-25T19:47:48.555Z,99402.31
2022-11-25T19:50:21.746Z,99410.63
2022-11-25T19:52:49.910Z,99407.06
2022-11-25T19:55:21.467Z,99412.19
2022-11-25T19:57:50.536Z,99422.91
2022-11-25T20:00:21.630Z,99422.81
2022-11-25T20:02:51.821Z,99427.06
2022-11-25T20:05:22.888Z,99432.34
2022-11-25T20:07:50.970Z,99439.63
2022-11-25T20:10:22.665Z,99447.22
2022-11-25T20:12:51.463Z,99447.75
2022-11-25T20:15:20.110Z,99446.19
2022-11-25T20:17:50.247Z,99438.19
2022-11-25T20:20:20.808Z,99453.13
2022-11-25T20:22:57.714Z,99464.69
2022-11-25T20:25:28.057Z,99471.69
2022-11-25T20:27:56.169Z,99468.09
2022-11-25T20:30:26.527Z,99474.66
2022-11-25T20:32:54.596Z,99482.50
2022-11-25T20:35:23.635Z,99489.41
2022-11-25T20:38:00.272Z,99490.03
2022-11-25T20:40:37.938Z,99494.19
2022-11-25T20:43:05.749Z,99489.03
2022-11-25T20:45:33.663Z,99490.06
2022-11-25T20:48:01.786Z,99503.06
2022-11-25T20:50:31.538Z,99494.88
2022-11-25T20:52:59.374Z,99505.84
2022-11-25T20:55:27.399Z,99505.94
2022-11-25T20:57:58.827Z,99517.47
2022-11-25T21:00:28.594Z,99514.38
2022-11-25T21:02:57.289Z,99517.34
2022-11-25T21:05:27.404Z,99518.63
2022-11-25T21:07:55.552Z,99525.34
2022-11-25T21:10:27.119Z,99526.41
2022-11-25T21:12:56.115Z,99535.53
2022-11-25T21:15:27.436Z,99538.00
2022-11-25T21:17:55.479Z,99541.41
2022-11-25T21:20:23.294Z,99537.00
2022-11-25T21:22:55.047Z,99543.09
2022-11-25T21:25:24.213Z,99546.91
2022-11-25T21:27:52.893Z,99541.41
2022-11-25T21:30:22.465Z,99544.44
2022-11-25T21:32:54.681Z,99556.91
2022-11-25T21:35:23.945Z,99550.50
2022-11-25T21:37:51.928Z,99557.84
2022-11-25T21:40:34.053Z,99552.00
2022-11-25T21:43:02.226Z,99549.66
2022-11-25T21:45:30.048Z,99552.09
2022-11-25T21:47:59.260Z,99563.63
2022-11-25T21:50:29.766Z,99574.16
2022-11-25T21:52:57.612Z,99569.59
2022-11-25T21:55:26.241Z,99574.84
2022-11-25T21:57:54.039Z,99578.25
2022-11-25T22:00:26.192Z,99583.81
2022-11-25T22:02:54.358Z,99585.22
2022-11-25T22:05:25.547Z,99582.38
2022-11-25T22:07:54.859Z,99584.88
2022-11-25T22:10:23.696Z,99580.59
2022-11-25T22:12:51.799Z,99584.91
2022-11-25T22:15:21.656Z,99582.53
2022-11-25T22:17:50.649Z,99585.09
2022-11-25T22:20:27.230Z,99591.75
2022-11-25T22:22:56.000Z,99598.03
2022-11-25T22:25:25.719Z,99605.00
2022-11-25T22:27:53.860Z,99608.34
2022-11-25T22:30:23.912Z,99610.56
2022-11-25T22:33:01.070Z,99602.03
2022-11-25T22:35:30.288Z,99606.25
2022-11-25T22:37:58.117Z,99606.06
2022-11-25T22:40:26.239Z,99599.16
2022-11-25T22:42:56.352Z,99610.91
2022-11-25T22:45:29.309Z,99621.63
2022-11-25T22:47:57.856Z,99629.13
2022-11-25T22:50:29.017Z,99629.75
2022-11-25T22:52:59.129Z,99622.38
2022-11-25T22:55:28.911Z,99629.53
2022-11-25T22:57:58.926Z,99626.75
2022-11-25T23:00:28.842Z,99632.56
2022-11-25T23:02:58.509Z,99632.22
2022-11-25T23:05:32.610Z,99639.06
2022-11-25T23:08:03.751Z,99637.97
2022-11-25T23:10:33.391Z,99637.97
2022-11-25T23:13:01.248Z,99642.25
2022-11-25T23:15:30.225Z,99639.59
2022-11-25T23:18:00.395Z,99643.03
2022-11-25T23:20:31.263Z,99635.50
2022-11-25T23:22:59.928Z,99642.53
2022-11-25T23:25:29.079Z,99644.16
2022-11-25T23:27:56.991Z,99641.00
2022-11-25T23:30:25.001Z,99639.13
2022-11-25T23:32:54.355Z,99633.28
2022-11-25T23:35:28.342Z,99644.34
2022-11-25T23:37:58.026Z,99639.47
2022-11-25T23:40:27.477Z,99651.88
2022-11-25T23:42:57.464Z,99648.53
2022-11-25T23:45:27.665Z,99645.41
2022-11-25T23:47:58.469Z,99646.13
2022-11-25T23:50:29.781Z,99638.13
2022-11-25T23:53:01.752Z,99645.09
2022-11-25T23:55:32.603Z,99641.84
2022-11-25T23:58:03.340Z,99647.81
